sensor_id;sensor_type;location;lat;lon;timestamp;pressure;altitude;pressure_sealevel;temperature;humidity
36692;BME280;22678;52.052;4.242;2022-11-15T00:01:32;100791.84;;;7.50;93.85
36692;BME280;22678;52.052;4.242;2022-11-15T00:03:57;100772.66;;;7.42;94.16
36692;BME280;22678;52.052;4.242;2022-11-15T00:06:22;100790.13;;;7.49;93.98
36692;BME280;22678;52.052;4.242;2022-11-15T00:08:48;100786.63;;;7.52;94.20
36692;BME280;22678;52.052;4.242;2022-11-15T00:11:13;100797.09;;;7.57;94.52
36692;BME280;22678;52.052;4.242;2022-11-15T00:13:39;100790.16;;;7.59;94.81
36692;BME280;22678;52.052;4.242;2022-11-15T00:16:05;100783.16;;;7.54;94.73
36692;BME280;22678;52.052;4.242;2022-11-15T00:18:30;100770.06;;;7.51;94.84
36692;BME280;22678;52.052;4.242;2022-11-15T00:21:01;100791.03;;;7.62;94.92
36692;BME280;22678;52.052;4.242;2022-11-15T00:23:28;100774.44;;;7.49;95.03
36692;BME280;22678;52.052;4.242;2022-11-15T00:25:57;100779.69;;;7.59;95.18
36692;BME280;22678;52.052;4.242;2022-11-15T00:28:23;100770.06;;;7.53;95.35
36692;BME280;22678;52.052;4.242;2022-11-15T00:30:49;100784.94;;;7.65;95.47
36692;BME280;22678;52.052;4.242;2022-11-15T00:33:14;100781.47;;;7.66;95.57
36692;BME280;22678;52.052;4.242;2022-11-15T00:35:39;100737.81;;;7.49;95.76
36692;BME280;22678;52.052;4.242;2022-11-15T00:38:04;100763.09;;;7.58;95.87
36692;BME280;22678;52.052;4.242;2022-11-15T00:40:30;100741.28;;;7.51;95.93
36692;BME280;22678;52.052;4.242;2022-11-15T00:42:55;100759.63;;;7.59;96.27
36692;BME280;22678;52.052;4.242;2022-11-15T00:45:21;100758.75;;;7.59;96.24
36692;BME280;22678;52.052;4.242;2022-11-15T00:47:46;100782.31;;;7.72;96.17
36692;BME280;22678;52.052;4.242;2022-11-15T00:50:12;100772.75;;;7.70;96.41
36692;BME280;22678;52.052;4.242;2022-11-15T00:52:38;100743.06;;;7.59;96.56
36692;BME280;22678;52.052;4.242;2022-11-15T00:55:04;100765.78;;;7.78;96.66
36692;BME280;22678;52.052;4.242;2022-11-15T00:57:29;100759.66;;;7.79;96.87
36692;BME280;22678;52.052;4.242;2022-11-15T00:59:55;100751.81;;;7.70;96.84
36692;BME280;22678;52.052;4.242;2022-11-15T01:02:20;100737.81;;;7.68;97.05
36692;BME280;22678;52.052;4.242;2022-11-15T01:04:45;100743.97;;;7.79;97.08
36692;BME280;22678;52.052;4.242;2022-11-15T01:07:11;100705.56;;;7.60;97.05
36692;BME280;22678;52.052;4.242;2022-11-15T01:09:36;100739.59;;;7.81;97.41
36692;BME280;22678;52.052;4.242;2022-11-15T01:12:01;100729.13;;;7.81;97.29
36692;BME280;22678;52.052;4.242;2022-11-15T01:14:27;100736.13;;;7.82;97.33
36692;BME280;22678;52.052;4.242;2022-11-15T01:16:52;100739.63;;;7.91;97.61
36692;BME280;22678;52.052;4.242;2022-11-15T01:19:17;100743.09;;;7.96;97.63
36692;BME280;22678;52.052;4.242;2022-11-15T01:21:43;100731.78;;;7.97;97.70
36692;BME280;22678;52.052;4.242;2022-11-15T01:24:12;100723.91;;;7.94;97.99
36692;BME280;22678;52.052;4.242;2022-11-15T01:26:38;100721.25;;;7.89;97.93
36692;BME280;22678;52.052;4.242;2022-11-15T01:29:03;100704.69;;;7.85;97.93
36692;BME280;22678;52.052;4.242;2022-11-15T01:31:28;100701.22;;;7.93;98.12
36692;BME280;22678;52.052;4.242;2022-11-15T01:33:53;100722.16;;;8.05;98.50
36692;BME280;22678;52.052;4.242;2022-11-15T01:36:21;100702.97;;;7.94;98.06
36692;BME280;22678;52.052;4.242;2022-11-15T01:38:47;100702.06;;;7.98;98.40
36692;BME280;22678;52.052;4.242;2022-11-15T01:41:19;100715.19;;;8.10;98.37
36692;BME280;22678;52.052;4.242;2022-11-15T01:43:52;100712.56;;;8.09;98.61
36692;BME280;22678;52.052;4.242;2022-11-15T01:48:51;100695.97;;;8.05;98.74
36692;BME280;22678;52.052;4.242;2022-11-15T01:51:19;100701.22;;;8.14;98.82
36692;BME280;22678;52.052;4.242;2022-11-15T01:53:47;100692.47;;;8.11;98.99
36692;BME280;22678;52.052;4.242;2022-11-15T01:56:16;100702.06;;;8.24;99.18
36692;BME280;22678;52.052;4.242;2022-11-15T01:58:43;100697.69;;;8.20;99.23
36692;BME280;22678;52.052;4.242;2022-11-15T02:01:11;100692.47;;;8.24;99.56
36692;BME280;22678;52.052;4.242;2022-11-15T02:03:58;100683.72;;;8.29;99.31
36692;BME280;22678;52.052;4.242;2022-11-15T02:06:24;100688.09;;;8.31;99.82
36692;BME280;22678;52.052;4.242;2022-11-15T02:08:50;100687.22;;;8.34;99.68
36692;BME280;22678;52.052;4.242;2022-11-15T02:11:16;100688.97;;;8.35;99.69
36692;BME280;22678;52.052;4.242;2022-11-15T02:13:42;100667.16;;;8.27;100.00
36692;BME280;22678;52.052;4.242;2022-11-15T02:25:01;100675.88;;;8.49;100.00
36692;BME280;22678;52.052;4.242;2022-11-15T02:27:42;100678.47;;;8.52;100.00
36692;BME280;22678;52.052;4.242;2022-11-15T02:30:24;100665.34;;;8.55;100.00
36692;BME280;22678;52.052;4.242;2022-11-15T02:35:40;100662.72;;;8.63;100.00
36692;BME280;22678;52.052;4.242;2022-11-15T02:41:02;100653.94;;;8.70;100.00
36692;BME280;22678;52.052;4.242;2022-11-15T02:46:28;100654.78;;;8.81;100.00
36692;BME280;22678;52.052;4.242;2022-11-15T02:49:14;100649.50;;;8.87;100.00
36692;BME280;22678;52.052;4.242;2022-11-15T02:51:41;100606.75;;;8.70;100.00
36692;BME280;22678;52.052;4.242;2022-11-15T02:54:12;100650.31;;;9.05;100.00
36692;BME280;22678;52.052;4.242;2022-11-15T02:56:37;100624.13;;;8.97;100.00
36692;BME280;22678;52.052;4.242;2022-11-15T02:59:13;100627.56;;;9.04;100.00
36692;BME280;22678;52.052;4.242;2022-11-15T03:10:01;100644.91;;;9.36;100.00
36692;BME280;22678;52.052;4.242;2022-11-15T03:12:40;100636.16;;;9.35;100.00
36692;BME280;22678;52.052;4.242;2022-11-15T03:15:11;100632.59;;;9.47;100.00
36692;BME280;22678;52.052;4.242;2022-11-15T03:17:49;100618.59;;;9.43;100.00
36692;BME280;22678;52.052;4.242;2022-11-15T03:20:17;100607.25;;;9.40;100.00
36692;BME280;22678;52.052;4.242;2022-11-15T03:22:46;100602.00;;;9.40;100.00
36692;BME280;22678;52.052;4.242;2022-11-15T03:25:17;100608.06;;;9.50;100.00
36692;BME280;22678;52.052;4.242;2022-11-15T03:27:47;100608.00;;;9.59;100.00
36692;BME280;22678;52.052;4.242;2022-11-15T03:30:13;100622.84;;;9.61;100.00
36692;BME280;22678;52.052;4.242;2022-11-15T03:32:49;100628.00;;;9.74;100.00
36692;BME280;22678;52.052;4.242;2022-11-15T03:35:30;100612.31;;;9.64;100.00
36692;BME280;22678;52.052;4.242;2022-11-15T03:38:19;100617.56;;;9.66;100.00
36692;BME280;22678;52.052;4.242;2022-11-15T03:40:54;100646.28;;;9.83;100.00
36692;BME280;22678;52.052;4.242;2022-11-15T03:43:41;100634.06;;;9.84;100.00
36692;BME280;22678;52.052;4.242;2022-11-15T03:46:19;100628.81;;;9.84;100.00
36692;BME280;22678;52.052;4.242;2022-11-15T03:48:52;100637.47;;;9.90;100.00
36692;BME280;22678;52.052;4.242;2022-11-15T03:51:19;100613.94;;;9.79;100.00
36692;BME280;22678;52.052;4.242;2022-11-15T03:53:45;100628.75;;;9.88;100.00
36692;BME280;22678;52.052;4.242;2022-11-15T03:56:11;100624.38;;;9.89;100.00
36692;BME280;22678;52.052;4.242;2022-11-15T03:58:36;100630.44;;;9.95;100.00
36692;BME280;22678;52.052;4.242;2022-11-15T04:01:02;100636.47;;;10.04;100.00
36692;BME280;22678;52.052;4.242;2022-11-15T04:03:27;100599.00;;;9.86;100.00
36692;BME280;22678;52.052;4.242;2022-11-15T04:05:52;100610.31;;;9.93;100.00
36692;BME280;22678;52.052;4.242;2022-11-15T04:08:18;100628.59;;;10.04;100.00
36692;BME280;22678;52.052;4.242;2022-11-15T04:10:43;100587.59;;;9.87;100.00
36692;BME280;22678;52.052;4.242;2022-11-15T04:13:08;100584.94;;;9.90;100.00
36692;BME280;22678;52.052;4.242;2022-11-15T04:15:34;100635.47;;;10.17;100.00
36692;BME280;22678;52.052;4.242;2022-11-15T04:18:00;100626.72;;;10.18;100.00
36692;BME280;22678;52.052;4.242;2022-11-15T04:20:30;100625.78;;;10.24;100.00
36692;BME280;22678;52.052;4.242;2022-11-15T04:23:16;100584.84;;;10.04;100.00
36692;BME280;22678;52.052;4.242;2022-11-15T04:26:03;100610.03;;;10.22;100.00
36692;BME280;22678;52.052;4.242;2022-11-15T04:28:30;100594.34;;;10.14;100.00
36692;BME280;22678;52.052;4.242;2022-11-15T04:30:56;100610.88;;;10.24;100.00
36692;BME280;22678;52.052;4.242;2022-11-15T04:33:21;100601.28;;;10.23;100.00
36692;BME280;22678;52.052;4.242;2022-11-15T04:35:46;100590.78;;;10.18;100.00
36692;BME280;22678;52.052;4.242;2022-11-15T04:38:32;100617.00;;;10.28;100.00
36692;BME280;22678;52.052;4.242;2022-11-15T04:40:57;100616.06;;;10.37;100.00
36692;BME280;22678;52.052;4.242;2022-11-15T04:43:23;100622.19;;;10.37;100.00
36692;BME280;22678;52.052;4.242;2022-11-15T04:45:48;100625.69;;;10.33;100.00
36692;BME280;22678;52.052;4.242;2022-11-15T04:48:13;100626.59;;;10.33;100.00
36692;BME280;22678;52.052;4.242;2022-11-15T04:50:39;100629.19;;;10.38;100.00
36692;BME280;22678;52.052;4.242;2022-11-15T04:53:04;100635.28;;;10.40;100.00
36692;BME280;22678;52.052;4.242;2022-11-15T04:55:29;100630.09;;;10.32;100.00
36692;BME280;22678;52.052;4.242;2022-11-15T04:58:01;100640.47;;;10.45;100.00
36692;BME280;22678;52.052;4.242;2022-11-15T05:00:29;100638.72;;;10.47;100.00
36692;BME280;22678;52.052;4.242;2022-11-15T05:02:55;100637.84;;;10.45;100.00
36692;BME280;22678;52.052;4.242;2022-11-15T05:05:39;100625.59;;;10.42;100.00
36692;BME280;22678;52.052;4.242;2022-11-15T05:08:04;100591.59;;;10.25;100.00
36692;BME280;22678;52.052;4.242;2022-11-15T05:10:30;100600.34;;;10.27;100.00
36692;BME280;22678;52.052;4.242;2022-11-15T05:12:55;100596.03;;;10.23;100.00
36692;BME280;22678;52.052;4.242;2022-11-15T05:15:21;100631.75;;;10.43;100.00
36692;BME280;22678;52.052;4.242;2022-11-15T05:17:46;100628.28;;;10.38;100.00
36692;BME280;22678;52.052;4.242;2022-11-15T05:20:11;100619.59;;;10.29;100.00
36692;BME280;22678;52.052;4.242;2022-11-15T05:22:37;100639.72;;;10.37;100.00
36692;BME280;22678;52.052;4.242;2022-11-15T05:25:03;100630.16;;;10.26;100.00
36692;BME280;22678;52.052;4.242;2022-11-15T05:27:28;100628.44;;;10.22;100.00
36692;BME280;22678;52.052;4.242;2022-11-15T05:29:54;100620.59;;;10.19;100.00
36692;BME280;22678;52.052;4.242;2022-11-15T05:32:20;100624.94;;;10.18;100.00
36692;BME280;22678;52.052;4.242;2022-11-15T05:34:46;100636.31;;;10.24;100.00
36692;BME280;22678;52.052;4.242;2022-11-15T05:37:11;100629.31;;;10.20;100.00
36692;BME280;22678;52.052;4.242;2022-11-15T05:39:37;100640.69;;;10.23;100.00
36692;BME280;22678;52.052;4.242;2022-11-15T05:42:11;100605.84;;;10.01;100.00
36692;BME280;22678;52.052;4.242;2022-11-15T05:44:39;100647.66;;;10.24;100.00
36692;BME280;22678;52.052;4.242;2022-11-15T05:47:09;100643.31;;;10.22;100.00
36692;BME280;22678;52.052;4.242;2022-11-15T05:49:37;100632.94;;;10.08;100.00
36692;BME280;22678;52.052;4.242;2022-11-15T05:52:05;100645.13;;;10.16;100.00
36692;BME280;22678;52.052;4.242;2022-11-15T05:54:33;100612.94;;;9.94;100.00
36692;BME280;22678;52.052;4.242;2022-11-15T05:56:59;100633.03;;;10.00;100.00
36692;BME280;22678;52.052;4.242;2022-11-15T05:59:25;100625.22;;;9.92;100.00
36692;BME280;22678;52.052;4.242;2022-11-15T06:01:53;100640.94;;;9.95;100.00
36692;BME280;22678;52.052;4.242;2022-11-15T06:04:18;100663.66;;;10.03;100.00
36692;BME280;22678;52.052;4.242;2022-11-15T06:06:43;100658.41;;;10.03;100.00
36692;BME280;22678;52.052;4.242;2022-11-15T06:09:08;100646.16;;;10.00;100.00
36692;BME280;22678;52.052;4.242;2022-11-15T06:11:34;100643.59;;;9.95;100.00
36692;BME280;22678;52.052;4.242;2022-11-15T06:13:59;100654.06;;;9.98;100.00
36692;BME280;22678;52.052;4.242;2022-11-15T06:16:24;100650.53;;;9.98;100.00
36692;BME280;22678;52.052;4.242;2022-11-15T06:18:50;100665.38;;;10.04;100.00
36692;BME280;22678;52.052;4.242;2022-11-15T06:21:15;100637.44;;;9.93;100.00
36692;BME280;22678;52.052;4.242;2022-11-15T06:23:40;100651.41;;;10.02;100.00
36692;BME280;22678;52.052;4.242;2022-11-15T06:26:05;100553.88;;;9.42;100.00
36692;BME280;22678;52.052;4.242;2022-11-15T06:28:32;100632.28;;;9.84;100.00
36692;BME280;22678;52.052;4.242;2022-11-15T06:31:05;100632.34;;;9.79;100.00
36692;BME280;22678;52.052;4.242;2022-11-15T06:33:31;100641.06;;;9.80;100.00
36692;BME280;22678;52.052;4.242;2022-11-15T06:36:00;100663.75;;;9.90;100.00
36692;BME280;22678;52.052;4.242;2022-11-15T06:38:26;100666.38;;;9.89;100.00
36692;BME280;22678;52.052;4.242;2022-11-15T06:40:51;100649.81;;;9.79;100.00
36692;BME280;22678;52.052;4.242;2022-11-15T06:43:16;100634.19;;;9.63;100.00
36692;BME280;22678;52.052;4.242;2022-11-15T06:45:42;100668.19;;;9.84;100.00
36692;BME280;22678;52.052;4.242;2022-11-15T06:48:07;100648.22;;;9.59;100.00
36692;BME280;22678;52.052;4.242;2022-11-15T06:50:32;100660.44;;;9.67;100.00
36692;BME280;22678;52.052;4.242;2022-11-15T06:53:01;100677.88;;;9.77;100.00
36692;BME280;22678;52.052;4.242;2022-11-15T06:55:26;100657.88;;;9.59;100.00
36692;BME280;22678;52.052;4.242;2022-11-15T06:57:52;100666.56;;;9.64;100.00
36692;BME280;22678;52.052;4.242;2022-11-15T07:00:19;100675.28;;;9.71;100.00
36692;BME280;22678;52.052;4.242;2022-11-15T07:02:45;100653.50;;;9.56;100.00
36692;BME280;22678;52.052;4.242;2022-11-15T07:05:12;100679.66;;;9.69;100.00
36692;BME280;22678;52.052;4.242;2022-11-15T07:07:37;100675.31;;;9.68;100.00
36692;BME280;22678;52.052;4.242;2022-11-15T07:10:04;100664.84;;;9.58;100.00
36692;BME280;22678;52.052;4.242;2022-11-15T07:12:29;100658.78;;;9.55;100.00
36692;BME280;22678;52.052;4.242;2022-11-15T07:14:55;100656.97;;;9.58;100.00
36692;BME280;22678;52.052;4.242;2022-11-15T07:17:20;100664.00;;;9.56;100.00
36692;BME280;22678;52.052;4.242;2022-11-15T07:19:45;100675.34;;;9.64;100.00
36692;BME280;22678;52.052;4.242;2022-11-15T07:22:10;100655.28;;;9.54;100.00
36692;BME280;22678;52.052;4.242;2022-11-15T07:24:36;100676.25;;;9.57;100.00
36692;BME280;22678;52.052;4.242;2022-11-15T07:27:01;100646.59;;;9.43;100.00
36692;BME280;22678;52.052;4.242;2022-11-15T07:29:26;100657.06;;;9.49;100.00
36692;BME280;22678;52.052;4.242;2022-11-15T07:31:52;100672.75;;;9.61;100.00
36692;BME280;22678;52.052;4.242;2022-11-15T07:34:17;100670.97;;;9.60;100.00
36692;BME280;22678;52.052;4.242;2022-11-15T07:36:42;100664.06;;;9.50;100.00
36692;BME280;22678;52.052;4.242;2022-11-15T07:39:08;100674.47;;;9.59;100.00
36692;BME280;22678;52.052;4.242;2022-11-15T07:41:33;100656.19;;;9.49;100.00
36692;BME280;22678;52.052;4.242;2022-11-15T07:43:58;100657.88;;;9.57;100.00
36692;BME280;22678;52.052;4.242;2022-11-15T07:46:24;100642.19;;;9.45;100.00
36692;BME280;22678;52.052;4.242;2022-11-15T07:48:49;100627.38;;;9.39;100.00
36692;BME280;22678;52.052;4.242;2022-11-15T07:51:16;100654.38;;;9.57;100.00
36692;BME280;22678;52.052;4.242;2022-11-15T07:53:42;100636.94;;;9.46;100.00
36692;BME280;22678;52.052;4.242;2022-11-15T07:56:08;100650.88;;;9.58;100.00
36692;BME280;22678;52.052;4.242;2022-11-15T07:58:34;100648.22;;;9.59;100.00
36692;BME280;22678;52.052;4.242;2022-11-15T08:01:04;100622.09;;;9.44;100.00
36692;BME280;22678;52.052;4.242;2022-11-15T08:03:29;100633.34;;;9.63;100.00
36692;BME280;22678;52.052;4.242;2022-11-15T08:05:55;100632.41;;;9.65;100.00
36692;BME280;22678;52.052;4.242;2022-11-15T08:08:20;100619.31;;;9.64;100.00
36692;BME280;22678;52.052;4.242;2022-11-15T08:10:45;100579.19;;;9.48;100.00
36692;BME280;22678;52.052;4.242;2022-11-15T08:13:11;100620.13;;;9.74;100.00
36692;BME280;22678;52.052;4.242;2022-11-15T08:15:37;100634.06;;;9.79;100.00
36692;BME280;22678;52.052;4.242;2022-11-15T08:18:13;100623.56;;;9.82;100.00
36692;BME280;22678;52.052;4.242;2022-11-15T08:20:38;100613.09;;;9.76;100.00
36692;BME280;22678;52.052;4.242;2022-11-15T08:23:05;100609.59;;;9.77;100.00
36692;BME280;22678;52.052;4.242;2022-11-15T08:25:31;100613.91;;;9.84;100.00
36692;BME280;22678;52.052;4.242;2022-11-15T08:28:04;100608.69;;;9.81;100.00
36692;BME280;22678;52.052;4.242;2022-11-15T08:30:34;100599.09;;;9.77;99.99
36692;BME280;22678;52.052;4.242;2022-11-15T08:33:01;100618.19;;;9.94;99.77
36692;BME280;22678;52.052;4.242;2022-11-15T08:35:26;100597.25;;;9.88;99.25
36692;BME280;22678;52.052;4.242;2022-11-15T08:37:53;100619.88;;;10.02;98.87
36692;BME280;22678;52.052;4.242;2022-11-15T08:40:19;100580.66;;;9.81;98.97
36692;BME280;22678;52.052;4.242;2022-11-15T08:42:46;100621.63;;;10.03;98.79
36692;BME280;22678;52.052;4.242;2022-11-15T08:45:12;100597.22;;;9.91;98.77
36692;BME280;22678;52.052;4.242;2022-11-15T08:47:38;100577.94;;;9.89;98.57
36692;BME280;22678;52.052;4.242;2022-11-15T08:50:03;100536.19;;;9.64;98.20
36692;BME280;22678;52.052;4.242;2022-11-15T08:52:28;100622.34;;;10.17;97.90
36692;BME280;22678;52.052;4.242;2022-11-15T08:54:54;100624.94;;;10.23;97.60
36692;BME280;22678;52.052;4.242;2022-11-15T08:57:19;100610.91;;;10.21;97.50
36692;BME280;22678;52.052;4.242;2022-11-15T08:59:44;100613.50;;;10.26;97.13
36692;BME280;22678;52.052;4.242;2022-11-15T09:02:12;100603.88;;;10.25;96.86
36692;BME280;22678;52.052;4.242;2022-11-15T09:04:40;100603.78;;;10.37;96.19
36692;BME280;22678;52.052;4.242;2022-11-15T09:07:06;100613.28;;;10.49;96.12
36692;BME280;22678;52.052;4.242;2022-11-15T09:09:32;100606.22;;;10.52;95.50
36692;BME280;22678;52.052;4.242;2022-11-15T09:11:57;100594.00;;;10.50;95.00
36692;BME280;22678;52.052;4.242;2022-11-15T09:14:22;100575.69;;;10.41;94.74
36692;BME280;22678;52.052;4.242;2022-11-15T09:16:47;100628.78;;;10.74;94.14
36692;BME280;22678;52.052;4.242;2022-11-15T09:19:13;100619.91;;;10.82;93.84
36692;BME280;22678;52.052;4.242;2022-11-15T09:21:39;100614.38;;;11.01;93.01
36692;BME280;22678;52.052;4.242;2022-11-15T09:24:05;100608.66;;;11.32;91.40
36692;BME280;22678;52.052;4.242;2022-11-15T09:26:30;100589.09;;;11.48;89.13
36692;BME280;22678;52.052;4.242;2022-11-15T09:28:56;100575.88;;;11.53;88.55
36692;BME280;22678;52.052;4.242;2022-11-15T09:31:21;100588.06;;;11.60;87.58
36692;BME280;22678;52.052;4.242;2022-11-15T09:33:46;100602.06;;;11.62;87.30
36692;BME280;22678;52.052;4.242;2022-11-15T09:36:12;100604.75;;;11.59;87.15
36692;BME280;22678;52.052;4.242;2022-11-15T09:38:38;100603.09;;;11.52;87.33
36692;BME280;22678;52.052;4.242;2022-11-15T09:49:18;100563.84;;;11.36;86.96
36692;BME280;22678;52.052;4.242;2022-11-15T09:51:45;100537.72;;;11.24;86.70
36692;BME280;22678;52.052;4.242;2022-11-15T09:56:57;100550.50;;;11.49;85.32
36692;BME280;22678;52.052;4.242;2022-11-15T10:02:13;100574.66;;;11.74;85.00
36692;BME280;22678;52.052;4.242;2022-11-15T10:04:43;100568.34;;;11.83;84.08
36692;BME280;22678;52.052;4.242;2022-11-15T10:07:20;100516.94;;;11.60;83.87
36692;BME280;22678;52.052;4.242;2022-11-15T10:09:54;100534.31;;;11.69;83.96
36692;BME280;22678;52.052;4.242;2022-11-15T10:12:22;100560.34;;;11.87;83.81
36692;BME280;22678;52.052;4.242;2022-11-15T10:14:49;100563.72;;;11.99;83.60
36692;BME280;22678;52.052;4.242;2022-11-15T10:20:19;100543.53;;;11.96;83.73
36692;BME280;22678;52.052;4.242;2022-11-15T10:22:51;100550.34;;;12.08;83.28
36692;BME280;22678;52.052;4.242;2022-11-15T10:25:35;100534.63;;;12.03;82.12
36692;BME280;22678;52.052;4.242;2022-11-15T10:28:15;100534.38;;;12.16;82.17
36692;BME280;22678;52.052;4.242;2022-11-15T10:30:47;100527.25;;;12.21;81.92
36692;BME280;22678;52.052;4.242;2022-11-15T10:33:42;100523.69;;;12.22;81.19
36692;BME280;22678;52.052;4.242;2022-11-15T10:41:19;100506.25;;;12.18;80.91
36692;BME280;22678;52.052;4.242;2022-11-15T10:43:45;100507.66;;;12.34;80.58
36692;BME280;22678;52.052;4.242;2022-11-15T10:46:25;100490.19;;;12.29;79.43
36692;BME280;22678;52.052;4.242;2022-11-15T10:48:51;100480.59;;;12.24;79.39
36692;BME280;22678;52.052;4.242;2022-11-15T10:51:22;100511.84;;;12.44;79.30
36692;BME280;22678;52.052;4.242;2022-11-15T10:53:54;100507.59;;;12.37;78.28
36692;BME280;22678;52.052;4.242;2022-11-15T10:56:21;100475.53;;;12.15;78.00
36692;BME280;22678;52.052;4.242;2022-11-15T10:58:55;100473.72;;;12.17;77.90
36692;BME280;22678;52.052;4.242;2022-11-15T11:01:23;100488.50;;;12.24;77.63
36692;BME280;22678;52.052;4.242;2022-11-15T11:04:05;100483.19;;;12.26;77.47
36692;BME280;22678;52.052;4.242;2022-11-15T11:07:08;100489.44;;;12.22;77.38
36692;BME280;22678;52.052;4.242;2022-11-15T11:09:34;100485.19;;;12.16;77.47
36692;BME280;22678;52.052;4.242;2022-11-15T11:12:01;100469.53;;;12.07;77.44
36692;BME280;22678;52.052;4.242;2022-11-15T11:14:29;100460.69;;;12.09;77.62
36692;BME280;22678;52.052;4.242;2022-11-15T11:19:49;100459.88;;;12.07;77.61
36692;BME280;22678;52.052;4.242;2022-11-15T11:25:15;100438.13;;;11.96;77.09
36692;BME280;22678;52.052;4.242;2022-11-15T11:30:19;100447.75;;;11.99;77.26
36692;BME280;22678;52.052;4.242;2022-11-15T11:35:55;100436.16;;;12.07;76.87
36692;BME280;22678;52.052;4.242;2022-11-15T11:38:38;100437.81;;;12.12;76.95
36692;BME280;22678;52.052;4.242;2022-11-15T11:44:06;100411.34;;;12.18;76.02
36692;BME280;22678;52.052;4.242;2022-11-15T11:46:59;100396.22;;;12.24;76.24
36692;BME280;22678;52.052;4.242;2022-11-15T11:54:48;100376.00;;;12.26;75.39
36692;BME280;22678;52.052;4.242;2022-11-15T11:57:46;100367.28;;;12.23;75.38
36692;BME280;22678;52.052;4.242;2022-11-15T12:00:18;100376.66;;;12.35;75.28
36692;BME280;22678;52.052;4.242;2022-11-15T12:03:03;100379.28;;;12.36;75.17
36692;BME280;22678;52.052;4.242;2022-11-15T12:08:03;100359.84;;;12.40;74.78
36692;BME280;22678;52.052;4.242;2022-11-15T12:10:32;100346.03;;;12.29;74.64
36692;BME280;22678;52.052;4.242;2022-11-15T12:13:16;100365.94;;;12.42;74.38
36692;BME280;22678;52.052;4.242;2022-11-15T12:16:02;100332.84;;;12.29;74.56
36692;BME280;22678;52.052;4.242;2022-11-15T12:18:29;100352.63;;;12.49;74.49
36692;BME280;22678;52.052;4.242;2022-11-15T12:20:58;100346.34;;;12.53;74.12
36692;BME280;22678;52.052;4.242;2022-11-15T12:23:30;100338.41;;;12.56;73.89
36692;BME280;22678;52.052;4.242;2022-11-15T12:26:05;100325.88;;;12.64;73.59
36692;BME280;22678;52.052;4.242;2022-11-15T12:28:57;100326.38;;;12.78;73.19
36692;BME280;22678;52.052;4.242;2022-11-15T12:31:36;100310.69;;;12.74;73.19
36692;BME280;22678;52.052;4.242;2022-11-15T12:36:44;100318.38;;;12.82;72.14
36692;BME280;22678;52.052;4.242;2022-11-15T12:39:11;100311.25;;;12.87;72.10
36692;BME280;22678;52.052;4.242;2022-11-15T12:41:39;100284.22;;;12.77;72.22
36692;BME280;22678;52.052;4.242;2022-11-15T12:44:11;100302.97;;;12.99;71.94
36692;BME280;22678;52.052;4.242;2022-11-15T13:02:18;100277.81;;;12.86;71.59
36692;BME280;22678;52.052;4.242;2022-11-15T13:04:44;100250.13;;;12.69;71.57
36692;BME280;22678;52.052;4.242;2022-11-15T13:17:47;100235.38;;;12.62;71.52
36692;BME280;22678;52.052;4.242;2022-11-15T13:22:50;100231.66;;;12.69;71.00
36692;BME280;22678;52.052;4.242;2022-11-15T13:33:35;100223.84;;;12.66;70.47
36692;BME280;22678;52.052;4.242;2022-11-15T13:36:06;100139.00;;;12.16;70.57
36692;BME280;22678;52.052;4.242;2022-11-15T13:38:38;100211.63;;;12.62;70.52
36692;BME280;22678;52.052;4.242;2022-11-15T13:41:31;100191.59;;;12.55;70.52
36692;BME280;22678;52.052;4.242;2022-11-15T13:43:58;100180.38;;;12.47;70.02
36692;BME280;22678;52.052;4.242;2022-11-15T13:46:29;100200.28;;;12.58;70.17
36692;BME280;22678;52.052;4.242;2022-11-15T13:49:04;100196.75;;;12.59;70.14
36692;BME280;22678;52.052;4.242;2022-11-15T13:51:49;100180.97;;;12.58;69.83
36692;BME280;22678;52.052;4.242;2022-11-15T13:54:24;100173.03;;;12.58;69.93
36692;BME280;22678;52.052;4.242;2022-11-15T13:57:17;100168.66;;;12.57;69.94
36692;BME280;22678;52.052;4.242;2022-11-15T13:59:49;100166.03;;;12.57;70.25
36692;BME280;22678;52.052;4.242;2022-11-15T14:02:18;100164.28;;;12.57;69.83
36692;BME280;22678;52.052;4.242;2022-11-15T14:04:50;100153.78;;;12.56;69.49
36692;BME280;22678;52.052;4.242;2022-11-15T14:07:22;100108.66;;;12.34;69.65
36692;BME280;22678;52.052;4.242;2022-11-15T14:09:48;100151.09;;;12.57;69.39
36692;BME280;22678;52.052;4.242;2022-11-15T14:14:51;100092.94;;;12.29;69.12
36692;BME280;22678;52.052;4.242;2022-11-15T14:19:55;100134.59;;;12.49;69.08
36692;BME280;22678;52.052;4.242;2022-11-15T14:22:22;100128.50;;;12.47;69.55
36692;BME280;22678;52.052;4.242;2022-11-15T14:27:38;100116.34;;;12.41;69.38
36692;BME280;22678;52.052;4.242;2022-11-15T14:30:05;100044.38;;;12.06;69.44
36692;BME280;22678;52.052;4.242;2022-11-15T14:32:45;100098.16;;;12.31;69.58
36692;BME280;22678;52.052;4.242;2022-11-15T14:35:20;100096.50;;;12.28;69.44
36692;BME280;22678;52.052;4.242;2022-11-15T14:37:46;100111.25;;;12.35;69.62
36692;BME280;22678;52.052;4.242;2022-11-15T14:40:15;100099.78;;;12.36;69.74
36692;BME280;22678;52.052;4.242;2022-11-15T14:42:41;100087.59;;;12.32;70.04
36692;BME280;22678;52.052;4.242;2022-11-15T14:45:26;100089.41;;;12.30;70.13
36692;BME280;22678;52.052;4.242;2022-11-15T14:47:52;100085.13;;;12.26;70.27
36692;BME280;22678;52.052;4.242;2022-11-15T14:50:19;100059.91;;;12.16;70.48
36692;BME280;22678;52.052;4.242;2022-11-15T14:52:45;100077.38;;;12.20;70.31
36692;BME280;22678;52.052;4.242;2022-11-15T14:55:26;100087.66;;;12.29;70.56
36692;BME280;22678;52.052;4.242;2022-11-15T14:57:56;100034.69;;;12.07;70.60
36692;BME280;22678;52.052;4.242;2022-11-15T15:00:22;100052.00;;;12.16;70.59